createdAt,value
2016-04-17T00:00:23.552Z,948.64
2016-04-17T00:01:23.554Z,948.66
2016-04-17T00:02:23.573Z,948.6
2016-04-17T00:03:23.576Z,948.6
2016-04-17T00:04:23.579Z,948.63
2016-04-17T00:05:23.597Z,948.59
2016-04-17T00:06:23.599Z,948.56
2016-04-17T00:07:23.602Z,948.58
2016-04-17T00:08:23.604Z,948.52
2016-04-17T00:09:23.624Z,948.46
2016-04-17T00:10:23.626Z,948.43
2016-04-17T00:11:23.629Z,948.45
2016-04-17T00:12:23.648Z,948.43
2016-04-17T00:13:23.650Z,948.43
2016-04-17T00:14:23.652Z,948.45
2016-04-17T00:15:23.670Z,948.43
2016-04-17T00:16:23.673Z,948.43
2016-04-17T00:17:23.676Z,948.31
2016-04-17T00:18:23.694Z,948.35
2016-04-17T00:19:23.697Z,948.32
2016-04-17T00:20:23.714Z,948.32
2016-04-17T00:21:23.703Z,948.31
2016-04-17T00:22:23.720Z,948.36
2016-04-17T00:23:23.723Z,948.38
2016-04-17T00:24:23.758Z,948.41
2016-04-17T00:25:23.744Z,948.43
2016-04-17T00:26:23.747Z,948.39
2016-04-17T00:27:23.749Z,948.33
2016-04-17T00:28:23.768Z,948.33
2016-04-17T00:29:23.770Z,948.35
2016-04-17T00:30:23.773Z,948.37
2016-04-17T00:31:23.791Z,948.32
2016-04-17T00:32:23.794Z,948.32
2016-04-17T00:33:23.796Z,948.27
2016-04-17T00:34:23.815Z,948.33
2016-04-17T00:35:23.818Z,948.32
2016-04-17T00:36:23.821Z,948.35
2016-04-17T00:37:23.840Z,948.29
2016-04-17T00:38:23.842Z,948.23
2016-04-17T00:39:23.845Z,948.21
2016-04-17T00:40:23.847Z,948.18
2016-04-17T00:41:23.865Z,948.21
2016-04-17T00:42:23.868Z,948.19
2016-04-17T00:43:23.871Z,948.23
2016-04-17T00:44:23.889Z,948.2
2016-04-17T00:45:23.892Z,948.18
2016-04-17T00:46:23.894Z,948.14
2016-04-17T00:47:23.912Z,948.15
2016-04-17T00:48:23.915Z,948.16
2016-04-17T00:49:23.918Z,948.19
2016-04-17T00:50:23.937Z,948.22
2016-04-17T00:51:23.939Z,948.19
2016-04-17T00:52:23.942Z,948.22
2016-04-17T00:53:23.961Z,948.19
2016-04-17T00:54:23.964Z,948.14
2016-04-17T00:55:23.966Z,948.18
2016-04-17T00:56:23.969Z,948.2
2016-04-17T00:57:23.986Z,948.19
2016-04-17T00:58:23.989Z,948.1
2016-04-17T00:59:23.991Z,948.09
2016-04-17T01:00:23.995Z,948.19
2016-04-17T01:01:24.013Z,948.27
2016-04-17T01:02:24.016Z,948.28
2016-04-17T01:03:24.018Z,948.28
2016-04-17T01:04:24.037Z,948.24
2016-04-17T01:05:24.040Z,948.24
2016-04-17T01:06:24.043Z,948.32
2016-04-17T01:07:24.060Z,948.31
2016-04-17T01:08:24.063Z,948.32
2016-04-17T01:09:24.065Z,948.34
2016-04-17T01:10:24.084Z,948.29
2016-04-17T01:11:24.087Z,948.25
2016-04-17T01:12:24.090Z,948.28
2016-04-17T01:13:24.093Z,948.28
2016-04-17T01:14:24.110Z,948.34
2016-04-17T01:15:24.112Z,948.36
2016-04-17T01:16:24.115Z,948.38
2016-04-17T01:17:24.134Z,948.37
2016-04-17T01:18:24.137Z,948.29
2016-04-17T01:19:24.156Z,948.29
2016-04-17T01:20:24.158Z,948.3
2016-04-17T01:21:24.161Z,948.27
2016-04-17T01:22:24.163Z,948.26
2016-04-17T01:23:24.166Z,948.36
2016-04-17T01:24:24.184Z,948.34
2016-04-17T01:25:24.187Z,948.3
2016-04-17T01:26:24.205Z,948.3
2016-04-17T01:27:24.208Z,948.33
2016-04-17T01:28:24.210Z,948.41
2016-04-17T01:29:24.213Z,948.42
2016-04-17T01:30:24.232Z,948.44
2016-04-17T01:31:24.235Z,948.47
2016-04-17T01:32:24.237Z,948.53
2016-04-17T01:33:24.255Z,948.54
2016-04-17T01:34:24.257Z,948.54
2016-04-17T01:35:24.277Z,948.64
2016-04-17T01:36:24.279Z,948.67
2016-04-17T01:37:24.282Z,948.63
2016-04-17T01:38:24.284Z,948.69
2016-04-17T01:39:24.287Z,948.8
2016-04-17T01:40:24.304Z,948.81
2016-04-17T01:41:24.308Z,948.93
2016-04-17T01:42:24.310Z,948.94
2016-04-17T01:43:24.329Z,948.99
2016-04-17T01:44:24.331Z,949.04
2016-04-17T01:45:24.350Z,949.05
2016-04-17T01:46:24.353Z,949
2016-04-17T01:47:24.356Z,948.98
2016-04-17T01:48:24.358Z,948.92
2016-04-17T01:49:24.361Z,948.84
2016-04-17T01:50:24.378Z,948.8
2016-04-17T01:51:24.381Z,948.77
2016-04-17T01:52:24.384Z,948.78
2016-04-17T01:53:24.403Z,948.81
2016-04-17T01:54:24.406Z,948.9
2016-04-17T01:55:24.408Z,948.97
2016-04-17T01:56:24.427Z,948.99
2016-04-17T01:57:24.429Z,948.97
2016-04-17T01:58:24.432Z,949
2016-04-17T01:59:24.450Z,949.01
2016-04-17T02:00:24.453Z,948.98
2016-04-17T02:01:24.455Z,948.97
2016-04-17T02:02:24.458Z,948.88
2016-04-17T02:03:24.476Z,948.92
2016-04-17T02:04:24.480Z,948.91
2016-04-17T02:05:24.497Z,948.89
2016-04-17T02:06:24.500Z,948.89
2016-04-17T02:07:24.502Z,948.89
2016-04-17T02:08:24.505Z,948.88
2016-04-17T02:09:24.524Z,948.85
2016-04-17T02:10:24.527Z,948.87
2016-04-17T02:11:24.529Z,948.9
2016-04-17T02:12:24.532Z,948.83
2016-04-17T02:13:24.550Z,948.78
2016-04-17T02:14:24.553Z,948.76
2016-04-17T02:15:24.555Z,948.74
2016-04-17T02:16:24.574Z,948.76
2016-04-17T02:17:24.576Z,948.77
2016-04-17T02:18:24.579Z,948.76
2016-04-17T02:19:24.597Z,948.76
2016-04-17T02:20:24.600Z,948.76
2016-04-17T02:21:24.603Z,948.81
2016-04-17T02:22:24.611Z,948.8
2016-04-17T02:23:24.628Z,948.78
2016-04-17T02:24:24.631Z,948.86
2016-04-17T02:25:24.634Z,948.99
2016-04-17T02:26:24.636Z,949.09
2016-04-17T02:27:24.655Z,949.15
2016-04-17T02:28:24.658Z,949.22
2016-04-17T02:29:24.660Z,949.28
2016-04-17T02:30:24.679Z,949.36
2016-04-17T02:31:24.682Z,949.44
2016-04-17T02:32:24.685Z,949.56
2016-04-17T02:33:24.688Z,949.66
2016-04-17T02:34:24.705Z,949.7
2016-04-17T02:35:24.708Z,949.77
2016-04-17T02:36:24.710Z,949.77
2016-04-17T02:37:24.729Z,949.81
2016-04-17T02:38:24.732Z,949.82
2016-04-17T02:39:24.735Z,949.9
2016-04-17T02:40:24.753Z,949.91
2016-04-17T02:41:24.756Z,949.97
2016-04-17T02:42:24.758Z,949.94
2016-04-17T02:43:24.761Z,949.95
2016-04-17T02:44:24.779Z,950.01
2016-04-17T02:45:24.782Z,950.04
2016-04-17T02:46:24.784Z,950.14
2016-04-17T02:47:24.803Z,950.23
2016-04-17T02:48:24.805Z,950.25
2016-04-17T02:49:24.809Z,950.28
2016-04-17T02:50:24.811Z,950.36
2016-04-17T02:51:24.829Z,950.43
2016-04-17T02:52:24.831Z,950.49
2016-04-17T02:53:24.850Z,950.51
2016-04-17T02:54:24.852Z,950.57
2016-04-17T02:55:24.856Z,950.67
2016-04-17T02:56:24.858Z,950.69
2016-04-17T02:57:24.877Z,950.7
2016-04-17T02:58:24.879Z,950.77
2016-04-17T02:59:24.897Z,950.76
2016-04-17T03:00:24.885Z,950.82
2016-04-17T03:01:24.902Z,950.84
2016-04-17T03:02:24.905Z,950.91
2016-04-17T03:03:24.924Z,950.98
2016-04-17T03:04:24.927Z,951.01
2016-04-17T03:05:24.929Z,951.1
2016-04-17T03:06:24.948Z,951.17
2016-04-17T03:07:24.951Z,951.18
2016-04-17T03:08:24.953Z,951.2
2016-04-17T03:09:24.956Z,951.2
2016-04-17T03:10:24.974Z,951.26
2016-04-17T03:11:24.976Z,951.3
2016-04-17T03:12:24.979Z,951.43
2016-04-17T03:13:24.982Z,951.43
2016-04-17T03:14:25.001Z,951.49
2016-04-17T03:15:25.003Z,951.51
2016-04-17T03:16:25.006Z,951.53
2016-04-17T03:17:25.023Z,951.61
2016-04-17T03:18:25.026Z,951.64
2016-04-17T03:19:25.029Z,951.61
2016-04-17T03:20:25.031Z,951.66
2016-04-17T03:21:25.050Z,951.62
2016-04-17T03:22:25.053Z,951.63
2016-04-17T03:23:25.056Z,951.66
2016-04-17T03:24:25.090Z,951.66
2016-04-17T03:25:25.077Z,951.71
2016-04-17T03:26:25.080Z,951.7
2016-04-17T03:27:25.082Z,951.68
2016-04-17T03:28:25.100Z,951.64
2016-04-17T03:29:25.102Z,951.68
2016-04-17T03:30:25.106Z,951.72
2016-04-17T03:31:25.124Z,951.75
2016-04-17T03:32:25.127Z,951.76
2016-04-17T03:33:25.129Z,951.75
2016-04-17T03:34:25.148Z,951.69
2016-04-17T03:35:25.150Z,951.69
2016-04-17T03:36:25.169Z,951.71
2016-04-17T03:37:25.171Z,951.75
2016-04-17T03:38:25.174Z,951.77
2016-04-17T03:39:25.176Z,951.79
2016-04-17T03:40:25.179Z,951.72
2016-04-17T03:41:25.198Z,951.72
2016-04-17T03:42:25.201Z,951.76
2016-04-17T03:43:25.203Z,951.72
2016-04-17T03:44:25.221Z,951.66
2016-04-17T03:45:25.224Z,951.68
2016-04-17T03:46:25.226Z,951.74
2016-04-17T03:47:25.229Z,951.85
2016-04-17T03:48:25.248Z,951.84
2016-04-17T03:49:25.251Z,951.89
2016-04-17T03:50:25.254Z,951.95
2016-04-17T03:51:25.272Z,951.95
2016-04-17T03:52:25.274Z,951.98
2016-04-17T03:53:25.278Z,951.99
2016-04-17T03:54:25.280Z,951.99
2016-04-17T03:55:25.298Z,952
2016-04-17T03:56:25.300Z,951.96
2016-04-17T03:57:25.303Z,951.99
2016-04-17T03:58:25.322Z,951.99
2016-04-17T03:59:25.324Z,951.94
2016-04-17T04:00:25.327Z,951.92
2016-04-17T04:01:25.346Z,951.91
2016-04-17T04:02:25.349Z,951.94
2016-04-17T04:03:25.351Z,951.94
2016-04-17T04:04:25.354Z,951.94
2016-04-17T04:05:25.372Z,951.92
2016-04-17T04:06:25.375Z,951.95
2016-04-17T04:07:25.377Z,951.87
2016-04-17T04:08:25.380Z,951.9
2016-04-17T04:09:25.398Z,951.91
2016-04-17T04:10:25.401Z,951.92
2016-04-17T04:11:25.403Z,951.95
2016-04-17T04:12:25.422Z,951.98
2016-04-17T04:13:25.424Z,951.96
2016-04-17T04:14:25.427Z,951.97
2016-04-17T04:15:25.445Z,952.02
2016-04-17T04:16:25.449Z,952
2016-04-17T04:17:25.451Z,952.02
2016-04-17T04:18:25.454Z,952.03
2016-04-17T04:19:25.472Z,951.99
2016-04-17T04:20:25.475Z,952.05
2016-04-17T04:21:25.477Z,952.09
2016-04-17T04:22:25.495Z,952.13
2016-04-17T04:23:25.498Z,952.15
2016-04-17T04:24:25.501Z,952.11
2016-04-17T04:25:25.519Z,952.14
2016-04-17T04:26:25.522Z,952.13
2016-04-17T04:27:25.524Z,952.08
2016-04-17T04:28:25.543Z,952.06
2016-04-17T04:29:25.546Z,952.01
2016-04-17T04:30:25.549Z,952.02
2016-04-17T04:31:25.552Z,952.01
2016-04-17T04:32:25.569Z,952.06
2016-04-17T04:33:25.572Z,952.04
2016-04-17T04:34:25.575Z,952.05
2016-04-17T04:35:25.594Z,952.08
2016-04-17T04:36:25.596Z,952.07
2016-04-17T04:37:25.599Z,952.05
2016-04-17T04:38:25.601Z,952.08
2016-04-17T04:39:25.619Z,952.06
2016-04-17T04:40:25.622Z,952.08
2016-04-17T04:41:25.624Z,952.1
2016-04-17T04:42:25.643Z,952.06
2016-04-17T04:43:25.646Z,952.06
2016-04-17T04:44:25.648Z,952.05
2016-04-17T04:45:25.651Z,952.05
2016-04-17T04:46:25.669Z,952.15
2016-04-17T04:47:25.673Z,952.2
2016-04-17T04:48:25.675Z,952.22
2016-04-17T04:49:25.693Z,952.23
2016-04-17T04:50:25.711Z,952.22
2016-04-17T04:51:25.698Z,952.22
2016-04-17T04:52:25.717Z,952.25
2016-04-17T04:53:25.720Z,952.27
2016-04-17T04:54:25.722Z,952.27
2016-04-17T04:55:25.866Z,952.33
2016-04-17T04:56:25.758Z,952.34
2016-04-17T04:57:25.746Z,952.36
2016-04-17T04:58:25.749Z,952.4
2016-04-17T04:59:25.751Z,952.41
2016-04-17T05:00:25.770Z,952.48
2016-04-17T05:01:25.772Z,952.46
2016-04-17T05:02:25.775Z,952.44
2016-04-17T05:03:25.793Z,952.46
2016-04-17T05:04:25.796Z,952.47
2016-04-17T05:05:25.799Z,952.46
2016-04-17T05:06:25.817Z,952.45
2016-04-17T05:07:25.819Z,952.4
2016-04-17T05:08:25.822Z,952.45
2016-04-17T05:09:25.840Z,952.46
2016-04-17T05:10:25.860Z,952.43
2016-04-17T05:11:25.862Z,952.42
2016-04-17T05:12:25.865Z,952.45
2016-04-17T05:13:25.867Z,952.44
2016-04-17T05:14:25.870Z,952.42
2016-04-17T05:15:25.872Z,952.41
2016-04-17T05:16:25.876Z,952.41
2016-04-17T05:17:25.893Z,952.42
2016-04-17T05:18:25.896Z,952.47
2016-04-17T05:19:25.914Z,952.49
2016-04-17T05:20:25.917Z,952.53
2016-04-17T05:21:25.919Z,952.59
2016-04-17T05:22:25.923Z,952.58
2016-04-17T05:23:25.941Z,952.57
2016-04-17T05:24:25.944Z,952.59
2016-04-17T05:25:25.946Z,952.6
2016-04-17T05:26:26.058Z,952.61
2016-04-17T05:27:25.967Z,952.6
2016-04-17T05:28:25.970Z,952.56
2016-04-17T05:29:25.988Z,952.62
2016-04-17T05:30:25.991Z,952.66
2016-04-17T05:31:25.994Z,952.68
2016-04-17T05:32:25.996Z,952.67
2016-04-17T05:33:26.014Z,952.7
2016-04-17T05:34:26.017Z,952.65
2016-04-17T05:35:26.036Z,952.7
2016-04-17T05:36:26.038Z,952.67
2016-04-17T05:37:26.041Z,952.69
2016-04-17T05:38:26.043Z,952.67
2016-04-17T05:39:26.062Z,952.67
2016-04-17T05:40:26.065Z,952.68
2016-04-17T05:41:26.068Z,952.71
2016-04-17T05:42:26.070Z,952.71
2016-04-17T05:43:26.073Z,952.67
2016-04-17T05:44:26.091Z,952.63
2016-04-17T05:45:26.094Z,952.7
2016-04-17T05:46:26.096Z,952.73
2016-04-17T05:47:26.115Z,952.75
2016-04-17T05:48:26.118Z,952.71
2016-04-17T05:49:26.120Z,952.69
2016-04-17T05:50:26.139Z,952.74
2016-04-17T05:51:26.142Z,952.7
2016-04-17T05:52:26.145Z,952.69
2016-04-17T05:53:26.162Z,952.72
2016-04-17T05:54:26.165Z,952.75
2016-04-17T05:55:26.167Z,952.7
2016-04-17T05:56:26.201Z,952.71
2016-04-17T05:57:26.188Z,952.71
2016-04-17T05:58:26.192Z,952.74
2016-04-17T05:59:26.194Z,952.79
2016-04-17T06:00:26.212Z,952.82
2016-04-17T06:01:26.214Z,952.81
2016-04-17T06:02:26.218Z,952.78
2016-04-17T06:03:26.273Z,952.83
2016-04-17T06:04:26.315Z,952.86
2016-04-17T06:05:26.358Z,952.84
2016-04-17T06:06:26.401Z,952.82
2016-04-17T06:07:26.459Z,952.84
2016-04-17T06:08:26.478Z,952.83
2016-04-17T06:09:26.495Z,952.8
2016-04-17T06:10:26.527Z,952.79
2016-04-17T06:11:26.544Z,952.81
2016-04-17T06:12:26.561Z,952.81
2016-04-17T06:13:26.585Z,952.82
2016-04-17T06:14:26.594Z,952.77
2016-04-17T06:15:26.602Z,952.79
2016-04-17T06:16:26.610Z,952.8
2016-04-17T06:17:26.634Z,952.79
2016-04-17T06:18:26.638Z,952.77
2016-04-17T06:19:26.643Z,952.78
2016-04-17T06:20:26.647Z,952.82
2016-04-17T06:21:26.668Z,952.82
2016-04-17T06:22:26.672Z,952.8
2016-04-17T06:23:26.675Z,952.81
2016-04-17T06:24:26.695Z,952.8
2016-04-17T06:25:26.698Z,952.85
2016-04-17T06:26:26.702Z,952.84
2016-04-17T06:27:26.721Z,952.87
2016-04-17T06:28:26.723Z,952.88
2016-04-17T06:29:26.726Z,952.83
2016-04-17T06:30:26.728Z,952.83
2016-04-17T06:31:26.747Z,952.85
2016-04-17T06:32:26.750Z,952.86
2016-04-17T06:33:26.752Z,952.81
2016-04-17T06:34:26.755Z,952.79
2016-04-17T06:35:26.774Z,952.75
2016-04-17T06:36:26.776Z,952.68
2016-04-17T06:37:26.779Z,952.69
2016-04-17T06:38:26.797Z,952.7
2016-04-17T06:39:26.799Z,952.72
2016-04-17T06:40:26.803Z,952.71
2016-04-17T06:41:26.821Z,952.7
2016-04-17T06:42:26.823Z,952.71
2016-04-17T06:43:26.827Z,952.68
2016-04-17T06:44:26.845Z,952.72
2016-04-17T06:45:26.848Z,952.68
2016-04-17T06:46:26.851Z,952.66
2016-04-17T06:47:26.853Z,952.64
2016-04-17T06:48:26.871Z,952.63
2016-04-17T06:49:26.874Z,952.65
2016-04-17T06:50:26.876Z,952.67
2016-04-17T06:51:26.895Z,952.66
2016-04-17T06:52:26.898Z,952.66
2016-04-17T06:53:26.900Z,952.66
2016-04-17T06:54:26.903Z,952.68
2016-04-17T06:55:26.920Z,952.68
2016-04-17T06:56:26.923Z,952.73
2016-04-17T06:57:26.927Z,952.71
2016-04-17T06:58:26.944Z,952.74
2016-04-17T06:59:26.948Z,952.73
2016-04-17T07:00:26.950Z,952.71
2016-04-17T07:01:26.969Z,952.67
2016-04-17T07:02:26.972Z,952.69
2016-04-17T07:03:26.974Z,952.69
2016-04-17T07:04:26.992Z,952.66
2016-04-17T07:05:26.995Z,952.69
2016-04-17T07:06:26.997Z,952.67
2016-04-17T07:07:27.000Z,952.69
2016-04-17T07:08:27.019Z,952.74
2016-04-17T07:09:27.021Z,952.75
2016-04-17T07:10:27.024Z,952.74
2016-04-17T07:11:27.026Z,952.77
2016-04-17T07:12:27.046Z,952.77
2016-04-17T07:13:27.048Z,952.8
2016-04-17T07:14:27.050Z,952.76
2016-04-17T07:15:27.068Z,952.84
2016-04-17T07:16:27.071Z,952.84
2016-04-17T07:17:27.073Z,952.83
2016-04-17T07:18:27.077Z,952.82
2016-04-17T07:19:27.095Z,952.85
2016-04-17T07:20:27.098Z,952.86
2016-04-17T07:21:27.100Z,952.81
2016-04-17T07:22:27.119Z,952.84
2016-04-17T07:23:27.121Z,952.85
2016-04-17T07:24:27.124Z,952.88
2016-04-17T07:25:27.126Z,952.89
2016-04-17T07:26:27.145Z,952.85
2016-04-17T07:27:27.148Z,952.92
2016-04-17T07:28:27.167Z,952.87
2016-04-17T07:29:27.169Z,952.82
2016-04-17T07:30:27.172Z,952.79
2016-04-17T07:31:27.174Z,952.8
2016-04-17T07:32:27.192Z,952.83
2016-04-17T07:33:27.195Z,952.85
2016-04-17T07:34:27.198Z,952.83
2016-04-17T07:35:27.216Z,952.79
2016-04-17T07:36:27.219Z,952.79
2016-04-17T07:37:27.222Z,952.83
2016-04-17T07:38:27.241Z,952.79
2016-04-17T07:39:27.243Z,952.8
2016-04-17T07:40:27.246Z,952.79
2016-04-17T07:41:27.263Z,952.82
2016-04-17T07:42:27.266Z,952.82
2016-04-17T07:43:27.269Z,952.82
2016-04-17T07:44:27.272Z,952.78
2016-04-17T07:45:27.274Z,952.83
2016-04-17T07:46:27.293Z,952.92
2016-04-17T07:47:27.295Z,952.91
2016-04-17T07:48:28.813Z,952.89
2016-04-17T07:49:27.316Z,952.95
2016-04-17T07:50:27.318Z,952.93
2016-04-17T07:51:27.321Z,952.89
2016-04-17T07:52:27.340Z,952.89
2016-04-17T07:53:27.343Z,952.89
2016-04-17T07:54:27.346Z,952.97
2016-04-17T07:55:27.364Z,952.95
2016-04-17T07:56:27.367Z,952.98
2016-04-17T07:57:27.369Z,952.98
2016-04-17T07:58:27.387Z,952.99
2016-04-17T07:59:27.389Z,953
2016-04-17T08:00:27.393Z,952.96
2016-04-17T08:01:27.395Z,952.98
2016-04-17T08:02:27.398Z,953.04
2016-04-17T08:03:27.416Z,953.03
2016-04-17T08:04:27.419Z,953.03
2016-04-17T08:05:27.422Z,953.07
2016-04-17T08:06:27.440Z,953.04
2016-04-17T08:07:27.443Z,953.06
2016-04-17T08:08:27.961Z,953.04
2016-04-17T08:09:27.464Z,953.07
2016-04-17T08:10:27.467Z,953.12
2016-04-17T08:11:27.469Z,953.15
2016-04-17T08:12:27.471Z,953.18
2016-04-17T08:13:27.490Z,953.17
2016-04-17T08:14:27.493Z,953.21
2016-04-17T08:15:27.496Z,953.26
2016-04-17T08:16:27.514Z,953.31
2016-04-17T08:17:27.516Z,953.24
2016-04-17T08:18:27.518Z,953.27
2016-04-17T08:19:27.537Z,953.28
2016-04-17T08:20:27.540Z,953.23
2016-04-17T08:21:27.542Z,953.25
2016-04-17T08:22:27.562Z,953.29
2016-04-17T08:23:27.564Z,953.28
2016-04-17T08:24:27.567Z,953.32
2016-04-17T08:25:27.569Z,953.3
2016-04-17T08:26:27.587Z,953.35
2016-04-17T08:27:27.590Z,953.36
2016-04-17T08:28:27.593Z,953.41
2016-04-17T08:29:27.596Z,953.42
2016-04-17T08:30:27.614Z,953.41
2016-04-17T08:31:27.617Z,953.44
2016-04-17T08:32:27.635Z,953.39
2016-04-17T08:33:27.638Z,953.42
2016-04-17T08:34:27.641Z,953.44
2016-04-17T08:35:27.643Z,953.46
2016-04-17T08:36:27.692Z,953.44
2016-04-17T08:37:27.664Z,953.48
2016-04-17T08:38:27.666Z,953.44
2016-04-17T08:39:27.685Z,953.5
2016-04-17T08:40:27.688Z,953.49
2016-04-17T08:41:27.691Z,953.55
2016-04-17T08:42:27.694Z,953.54
2016-04-17T08:43:27.712Z,953.54
2016-04-17T08:44:27.714Z,953.58
2016-04-17T08:45:27.716Z,953.54
2016-04-17T08:46:27.719Z,953.53
2016-04-17T08:47:27.754Z,953.58
2016-04-17T08:48:27.741Z,953.6
2016-04-17T08:49:27.759Z,953.6
2016-04-17T08:50:27.762Z,953.59
2016-04-17T08:51:27.765Z,953.61
2016-04-17T08:52:27.768Z,953.6
2016-04-17T08:53:27.785Z,953.55
2016-04-17T08:54:27.787Z,953.56
2016-04-17T08:55:27.790Z,953.58
2016-04-17T08:56:27.809Z,953.48
2016-04-17T08:57:27.812Z,953.56
2016-04-17T08:58:27.815Z,953.6
2016-04-17T08:59:27.817Z,953.57
2016-04-17T09:00:27.836Z,953.54
2016-04-17T09:01:27.839Z,953.51
2016-04-17T09:02:27.841Z,953.57
2016-04-17T09:03:27.859Z,953.6
2016-04-17T09:04:27.861Z,953.62
2016-04-17T09:05:27.864Z,953.64
2016-04-17T09:06:27.867Z,953.66
2016-04-17T09:07:27.886Z,953.63
2016-04-17T09:08:27.903Z,953.7
2016-04-17T09:09:27.906Z,953.71
2016-04-17T09:10:27.908Z,953.73
2016-04-17T09:11:27.912Z,953.72
2016-04-17T09:12:27.914Z,953.74
2016-04-17T09:13:27.933Z,953.76
2016-04-17T09:14:27.935Z,953.77
2016-04-17T09:15:27.955Z,953.77
2016-04-17T09:16:27.957Z,953.77
2016-04-17T09:17:27.960Z,953.8
2016-04-17T09:18:27.962Z,953.77
2016-04-17T09:19:27.965Z,953.77
2016-04-17T09:20:27.983Z,953.76
2016-04-17T09:21:27.985Z,953.81
2016-04-17T09:22:28.004Z,953.82
2016-04-17T09:23:27.990Z,953.83
2016-04-17T09:24:28.010Z,953.78
2016-04-17T09:25:28.028Z,953.81
2016-04-17T09:26:28.031Z,953.77
2016-04-17T09:27:28.034Z,953.8
2016-04-17T09:28:28.037Z,953.77
2016-04-17T09:29:28.039Z,953.79
2016-04-17T09:30:28.057Z,953.8
2016-04-17T09:31:28.059Z,953.85
2016-04-17T09:32:28.078Z,953.83
2016-04-17T09:33:28.081Z,953.89
2016-04-17T09:34:28.084Z,953.84
2016-04-17T09:35:28.086Z,953.88
2016-04-17T09:36:28.104Z,953.79
2016-04-17T09:37:28.107Z,953.9
2016-04-17T09:38:28.110Z,953.99
2016-04-17T09:39:28.112Z,953.99
2016-04-17T09:40:28.131Z,953.96
2016-04-17T09:41:28.134Z,954
2016-04-17T09:42:28.152Z,953.99
2016-04-17T09:43:28.154Z,954.03
2016-04-17T09:44:28.157Z,954.08
2016-04-17T09:45:28.160Z,954.05
2016-04-17T09:46:28.178Z,954.06
2016-04-17T09:47:28.180Z,954.05
2016-04-17T09:48:28.184Z,954.04
2016-04-17T09:49:28.202Z,954.04
2016-04-17T09:50:28.205Z,954.08
2016-04-17T09:51:28.208Z,954.06
2016-04-17T09:52:28.210Z,954.07
2016-04-17T09:53:28.229Z,954.09
2016-04-17T09:54:28.232Z,954.13
2016-04-17T09:55:28.249Z,954.14
2016-04-17T09:56:28.252Z,954.14
2016-04-17T09:57:28.255Z,954.16
2016-04-17T09:58:28.257Z,954.18
2016-04-17T09:59:28.275Z,954.16
2016-04-17T10:00:28.278Z,954.15
2016-04-17T10:01:28.281Z,954.18
2016-04-17T10:02:28.299Z,954.19
2016-04-17T10:03:28.302Z,954.18
2016-04-17T10:04:28.305Z,954.18
2016-04-17T10:05:28.307Z,954.19
2016-04-17T10:06:28.326Z,954.18
2016-04-17T10:07:28.329Z,954.19
2016-04-17T10:08:28.347Z,954.2
2016-04-17T10:09:28.349Z,954.22
2016-04-17T10:10:28.353Z,954.23
2016-04-17T10:11:28.417Z,954.25
2016-04-17T10:12:28.373Z,954.26
2016-04-17T10:13:28.375Z,954.25
2016-04-17T10:14:28.378Z,954.23
2016-04-17T10:15:28.380Z,954.3
2016-04-17T10:16:28.400Z,954.28
2016-04-17T10:17:28.402Z,954.28
2016-04-17T10:18:28.421Z,954.26
2016-04-17T10:19:28.424Z,954.3
2016-04-17T10:20:28.426Z,954.29
2016-04-17T10:21:28.444Z,954.25
2016-04-17T10:22:28.446Z,954.25
2016-04-17T10:23:28.449Z,954.16
2016-04-17T10:24:28.452Z,954.11
2016-04-17T10:25:28.470Z,954.11
2016-04-17T10:26:28.473Z,954.08
2016-04-17T10:27:28.476Z,954.18
2016-04-17T10:28:28.479Z,954.19
2016-04-17T10:29:28.497Z,954.12
2016-04-17T10:30:28.499Z,954.12
2016-04-17T10:31:28.502Z,954.16
2016-04-17T10:32:28.520Z,954.2
2016-04-17T10:33:28.523Z,954.18
2016-04-17T10:34:28.526Z,954.18
2016-04-17T10:35:28.528Z,954.17
2016-04-17T10:36:28.547Z,954.13
2016-04-17T10:37:28.550Z,954.15
2016-04-17T10:38:28.553Z,954.1
2016-04-17T10:39:28.571Z,954.12
2016-04-17T10:40:28.573Z,954.08
2016-04-17T10:41:28.608Z,954.05
2016-04-17T10:42:28.594Z,954.07
2016-04-17T10:43:28.597Z,954.05
2016-04-17T10:44:28.600Z,954.03
2016-04-17T10:45:28.618Z,954.01
2016-04-17T10:46:28.622Z,954.01
2016-04-17T10:47:28.623Z,953.99
2016-04-17T10:48:28.642Z,954
2016-04-17T10:49:28.645Z,954
2016-04-17T10:50:28.647Z,953.98
2016-04-17T10:51:28.666Z,954
2016-04-17T10:52:28.669Z,954.02
2016-04-17T10:53:28.671Z,953.99
2016-04-17T10:54:28.689Z,953.97
2016-04-17T10:55:28.691Z,953.94
2016-04-17T10:56:28.694Z,953.96
2016-04-17T10:57:28.712Z,954
2016-04-17T10:58:28.715Z,954.05
2016-04-17T10:59:28.719Z,954.07
2016-04-17T11:00:28.721Z,954.1
2016-04-17T11:01:28.740Z,954.1
2016-04-17T11:02:28.742Z,954.13
2016-04-17T11:03:28.745Z,954.16
2016-04-17T11:04:28.763Z,954.18
2016-04-17T11:05:28.781Z,954.22
2016-04-17T11:06:28.768Z,954.15
2016-04-17T11:07:28.786Z,954.16
2016-04-17T11:08:28.789Z,954.13
2016-04-17T11:09:28.792Z,954.16
2016-04-17T11:10:28.794Z,954.2
2016-04-17T11:11:28.813Z,954.22
2016-04-17T11:12:28.816Z,954.25
2016-04-17T11:13:28.819Z,954.26
2016-04-17T11:14:28.837Z,954.31
2016-04-17T11:15:28.839Z,954.34
2016-04-17T11:16:28.842Z,954.35
2016-04-17T11:17:28.861Z,954.39
2016-04-17T11:18:28.863Z,954.43
2016-04-17T11:19:28.866Z,954.5
2016-04-17T11:20:28.884Z,954.57
2016-04-17T11:21:28.887Z,954.64
2016-04-17T11:22:28.889Z,954.67
2016-04-17T11:23:28.907Z,954.57
2016-04-17T11:24:28.910Z,954.61
2016-04-17T11:25:28.913Z,954.67
2016-04-17T11:26:28.932Z,954.73
2016-04-17T11:27:28.934Z,954.74
2016-04-17T11:28:28.937Z,954.65
2016-04-17T11:29:28.940Z,954.7
2016-04-17T11:30:28.957Z,954.72
2016-04-17T11:31:28.960Z,954.74
2016-04-17T11:32:28.963Z,954.76
2016-04-17T11:33:28.981Z,954.78
2016-04-17T11:34:28.985Z,954.81
2016-04-17T11:35:28.987Z,954.78
2016-04-17T11:36:29.005Z,954.8
2016-04-17T11:37:29.008Z,954.77
2016-04-17T11:38:29.026Z,954.82
2016-04-17T11:39:29.029Z,954.84
2016-04-17T11:40:29.031Z,954.93
2016-04-17T11:41:29.034Z,954.96
2016-04-17T11:42:29.053Z,955
2016-04-17T11:43:29.056Z,954.99
2016-04-17T11:44:29.059Z,954.98
2016-04-17T11:45:29.061Z,955.05
2016-04-17T11:46:29.079Z,955.1
2016-04-17T11:47:29.082Z,955.14
2016-04-17T11:48:29.084Z,955.13
2016-04-17T11:49:29.103Z,955.16
2016-04-17T11:50:29.105Z,955.16
2016-04-17T11:51:29.108Z,955.22
2016-04-17T11:52:29.126Z,955.26
2016-04-17T11:53:29.144Z,955.28
2016-04-17T11:54:29.132Z,955.34
2016-04-17T11:55:29.150Z,955.4
2016-04-17T11:56:29.168Z,955.38
2016-04-17T11:57:29.155Z,955.46
2016-04-17T11:58:29.174Z,955.49
2016-04-17T11:59:29.177Z,955.58
2016-04-17T12:00:29.180Z,955.62
2016-04-17T12:01:29.182Z,955.59
2016-04-17T12:02:29.216Z,955.62
2016-04-17T12:03:29.219Z,955.66
2016-04-17T12:04:29.206Z,955.66
2016-04-17T12:05:29.224Z,955.7
2016-04-17T12:06:29.243Z,955.77
2016-04-17T12:07:29.229Z,955.8
2016-04-17T12:08:29.232Z,955.82
2016-04-17T12:09:29.250Z,955.88
2016-04-17T12:10:29.253Z,955.87
2016-04-17T12:11:29.256Z,955.81
2016-04-17T12:12:29.274Z,955.83
2016-04-17T12:13:29.276Z,955.78
2016-04-17T12:14:29.545Z,955.84
2016-04-17T12:15:29.297Z,955.88
2016-04-17T12:16:29.300Z,955.84
2016-04-17T12:17:29.319Z,955.89
2016-04-17T12:18:29.321Z,955.9
2016-04-17T12:19:29.324Z,955.9
2016-04-17T12:20:29.342Z,955.85
2016-04-17T12:21:29.345Z,955.85
2016-04-17T12:22:29.347Z,955.85
2016-04-17T12:23:29.366Z,955.88
2016-04-17T12:24:29.352Z,955.88
2016-04-17T12:25:29.372Z,955.89
2016-04-17T12:26:29.375Z,955.85
2016-04-17T12:27:29.393Z,955.82
2016-04-17T12:28:29.396Z,955.85
2016-04-17T12:29:29.398Z,955.84
2016-04-17T12:30:29.416Z,955.89
2016-04-17T12:31:29.419Z,955.91